createdAt,value
2022-09-10T00:01:59.202Z,15.57
2022-09-10T00:04:26.529Z,14.53
2022-09-10T00:06:53.608Z,14.40
2022-09-10T00:09:20.201Z,16.30
2022-09-10T00:11:46.874Z,18.30
2022-09-10T00:14:20.186Z,14.27
2022-09-10T00:16:47.463Z,15.00
2022-09-10T00:19:14.852Z,15.87
2022-09-10T00:21:41.819Z,15.53
2022-09-10T00:24:08.573Z,17.40
2022-09-10T00:26:39.170Z,16.20
2022-09-10T00:29:10.963Z,15.30
2022-09-10T00:31:38.633Z,18.67
2022-09-10T00:34:06.098Z,15.30
2022-09-10T00:36:40.222Z,13.20
2022-09-10T00:39:13.365Z,14.53
2022-09-10T00:41:42.740Z,14.33
2022-09-10T00:44:38.014Z,13.77
2022-09-10T00:47:12.539Z,15.10
2022-09-10T00:49:44.188Z,19.30
2022-09-10T00:52:12.419Z,14.57
2022-09-10T00:54:40.858Z,13.50
2022-09-10T00:57:12.388Z,12.00
2022-09-10T00:59:42.689Z,18.87
2022-09-10T01:02:09.800Z,14.57
2022-09-10T01:04:36.640Z,13.57
2022-09-10T01:07:03.428Z,20.23
2022-09-10T01:09:31.112Z,17.83
2022-09-10T01:12:19.368Z,13.63
2022-09-10T01:15:05.410Z,15.13
2022-09-10T01:17:54.132Z,19.87
2022-09-10T01:20:29.023Z,16.60
2022-09-10T01:23:33.693Z,19.93
2022-09-10T01:26:12.273Z,16.80
2022-09-10T01:28:50.334Z,15.70
2022-09-10T01:31:39.948Z,17.43
2022-09-10T01:34:16.729Z,15.90
2022-09-10T01:36:45.468Z,19.23
2022-09-10T01:39:12.588Z,15.50
2022-09-10T01:41:39.200Z,16.37
2022-09-10T01:44:10.892Z,16.60
2022-09-10T01:46:54.823Z,15.00
2022-09-10T01:49:32.496Z,24.97
2022-09-10T01:52:28.506Z,14.90
2022-09-10T01:55:32.378Z,15.33
2022-09-10T01:58:09.084Z,16.80
2022-09-10T02:00:41.262Z,16.40
2022-09-10T02:03:16.129Z,17.50
2022-09-10T02:05:44.972Z,16.83
2022-09-10T02:08:18.291Z,15.83
2022-09-10T02:10:59.188Z,17.60
2022-09-10T02:13:28.546Z,17.63
2022-09-10T02:15:56.652Z,18.20
2022-09-10T02:18:24.994Z,17.33
2022-09-10T02:20:55.958Z,16.00
2022-09-10T02:23:31.418Z,14.40
2022-09-10T02:25:58.802Z,19.33
2022-09-10T02:28:25.519Z,16.37
2022-09-10T02:30:52.247Z,16.13
2022-09-10T02:33:18.962Z,15.93
2022-09-10T02:35:47.697Z,13.67
2022-09-10T02:38:14.670Z,17.47
2022-09-10T02:40:43.129Z,15.40
2022-09-10T02:43:09.866Z,15.70
2022-09-10T02:45:38.425Z,19.90
2022-09-10T02:48:05.180Z,14.87
2022-09-10T02:50:35.762Z,16.27
2022-09-10T02:53:02.364Z,15.10
2022-09-10T02:55:28.962Z,14.97
2022-09-10T02:57:55.627Z,17.13
2022-09-10T03:00:22.611Z,16.10
2022-09-10T03:02:49.798Z,15.50
2022-09-10T03:05:17.257Z,14.57
2022-09-10T03:07:43.912Z,21.33
2022-09-10T03:10:10.822Z,16.57
2022-09-10T03:12:39.128Z,16.80
2022-09-10T03:15:06.856Z,15.40
2022-09-10T03:17:33.437Z,18.10
2022-09-10T03:20:00.056Z,14.17
2022-09-10T03:22:26.693Z,18.80
2022-09-10T03:24:55.011Z,13.90
2022-09-10T03:27:25.324Z,15.37
2022-09-10T03:29:52.005Z,20.20
2022-09-10T03:32:19.627Z,16.43
2022-09-10T03:34:46.220Z,15.03
2022-09-10T03:37:14.024Z,17.50
2022-09-10T03:39:40.618Z,17.80
2022-09-10T03:42:07.314Z,15.13
2022-09-10T03:44:34.017Z,13.40
2022-09-10T03:47:01.333Z,14.50
2022-09-10T03:49:28.247Z,15.03
2022-09-10T03:51:55.820Z,15.00
2022-09-10T03:54:22.558Z,14.77
2022-09-10T03:56:49.260Z,14.17
2022-09-10T03:59:17.170Z,15.23
2022-09-10T04:01:47.225Z,16.50
2022-09-10T04:04:14.884Z,15.03
2022-09-10T04:06:41.469Z,17.10
2022-09-10T04:09:08.044Z,15.13
2022-09-10T04:11:35.868Z,17.90
2022-09-10T04:14:02.471Z,15.70
2022-09-10T04:16:29.167Z,14.87
2022-09-10T04:18:55.977Z,14.90
2022-09-10T04:21:25.416Z,16.10
2022-09-10T04:23:56.272Z,17.40
2022-09-10T04:26:23.106Z,14.10
2022-09-10T04:28:49.871Z,16.43
2022-09-10T04:31:17.155Z,19.13
2022-09-10T04:33:44.291Z,19.30
2022-09-10T04:36:12.740Z,17.87
2022-09-10T04:38:41.515Z,18.67
2022-09-10T04:41:09.091Z,17.30
2022-09-10T04:43:36.975Z,13.33
2022-09-10T04:46:03.675Z,17.07
2022-09-10T04:48:30.348Z,18.63
2022-09-10T04:51:15.256Z,12.90
2022-09-10T04:53:43.581Z,17.30
2022-09-10T04:56:10.532Z,16.20
2022-09-10T04:58:39.040Z,17.40
2022-09-10T05:01:06.508Z,12.50
2022-09-10T05:03:33.521Z,14.33
2022-09-10T05:06:00.140Z,14.50
2022-09-10T05:08:26.757Z,17.13
2022-09-10T05:10:53.395Z,13.40
2022-09-10T05:13:19.983Z,16.97
2022-09-10T05:15:46.631Z,19.90
2022-09-10T05:18:13.318Z,15.47
2022-09-10T05:20:39.932Z,15.37
2022-09-10T05:23:06.540Z,14.53
2022-09-10T05:25:34.512Z,16.23
2022-09-10T05:28:01.556Z,18.43
2022-09-10T05:30:32.567Z,13.90
2022-09-10T05:33:00.670Z,16.57
2022-09-10T05:35:28.961Z,14.83
2022-09-10T05:37:59.208Z,14.43
2022-09-10T05:40:25.994Z,14.30
2022-09-10T05:42:53.936Z,16.17
2022-09-10T05:45:21.256Z,14.10
2022-09-10T05:47:47.883Z,16.00
2022-09-10T05:50:14.557Z,14.87
2022-09-10T05:52:41.314Z,18.30
2022-09-10T05:55:09.652Z,14.00
2022-09-10T05:57:36.239Z,13.90
2022-09-10T06:00:07.520Z,13.40
2022-09-10T06:02:34.274Z,13.00
2022-09-10T06:05:01.055Z,13.07
2022-09-10T06:07:29.887Z,15.30
2022-09-10T06:10:02.976Z,16.20
2022-09-10T06:12:29.570Z,14.20
2022-09-10T06:14:56.185Z,13.77
2022-09-10T06:17:22.827Z,12.50
2022-09-10T06:19:51.845Z,15.53
2022-09-10T06:22:18.429Z,13.23
2022-09-10T06:24:47.767Z,13.23
2022-09-10T06:27:14.817Z,13.20
2022-09-10T06:29:41.391Z,15.30
2022-09-10T06:32:08.000Z,14.43
2022-09-10T06:34:35.743Z,17.43
2022-09-10T06:37:04.129Z,14.80
2022-09-10T06:39:30.768Z,13.40
2022-09-10T06:41:57.509Z,15.33
2022-09-10T06:44:24.136Z,13.20
2022-09-10T06:49:39.241Z,12.20
2022-09-10T06:52:05.845Z,11.60
2022-09-10T06:54:32.606Z,15.70
2022-09-10T06:56:59.268Z,13.23
2022-09-10T06:59:25.881Z,11.17
2022-09-10T07:01:52.587Z,12.10
2022-09-10T07:04:19.362Z,13.23
2022-09-10T07:06:47.502Z,12.00
2022-09-10T07:09:14.673Z,12.20
2022-09-10T07:11:41.875Z,14.70
2022-09-10T07:14:13.822Z,12.40
2022-09-10T07:16:44.557Z,11.60
2022-09-10T07:19:14.054Z,11.73
2022-09-10T07:21:41.054Z,10.47
2022-09-10T07:24:10.788Z,12.23
2022-09-10T07:26:37.461Z,10.77
2022-09-10T07:29:05.193Z,10.80
2022-09-10T07:31:37.098Z,11.17
2022-09-10T07:34:04.609Z,14.13
2022-09-10T07:36:31.718Z,10.07
2022-09-10T07:39:01.415Z,12.93
2022-09-10T07:41:29.622Z,11.30
2022-09-10T07:43:56.442Z,12.53
2022-09-10T07:46:25.328Z,12.50
2022-09-10T07:48:57.573Z,13.33
2022-09-10T07:51:25.784Z,11.60
2022-09-10T07:53:54.311Z,12.30
2022-09-10T07:56:23.035Z,11.60
2022-09-10T07:58:50.246Z,11.47
2022-09-10T08:01:17.036Z,13.67
2022-09-10T08:03:45.080Z,12.03
2022-09-10T08:06:12.465Z,13.10
2022-09-10T08:08:40.614Z,16.07
2022-09-10T08:11:12.880Z,12.50
2022-09-10T08:13:41.501Z,11.70
2022-09-10T08:16:10.355Z,11.83
2022-09-10T08:18:37.341Z,10.80
2022-09-10T08:21:05.184Z,10.20
2022-09-10T08:23:32.638Z,11.30
2022-09-10T08:25:59.802Z,10.57
2022-09-10T08:28:27.250Z,10.50
2022-09-10T08:30:58.015Z,12.97
2022-09-10T08:33:25.379Z,11.27
2022-09-10T08:35:57.048Z,10.93
2022-09-10T08:38:25.307Z,11.77
2022-09-10T08:40:54.416Z,12.47
2022-09-10T08:43:41.767Z,12.40
2022-09-10T08:46:20.448Z,10.97
2022-09-10T08:48:50.408Z,12.20
2022-09-10T08:51:29.965Z,15.63
2022-09-10T08:54:02.471Z,10.20
2022-09-10T08:56:30.018Z,11.63
2022-09-10T08:59:21.691Z,23.43
2022-09-10T09:01:55.216Z,9.70
2022-09-10T09:04:42.207Z,9.77
2022-09-10T09:07:15.474Z,10.13
2022-09-10T09:09:42.775Z,10.13
2022-09-10T09:12:18.887Z,10.70
2022-09-10T09:14:57.492Z,10.77
2022-09-10T09:17:48.715Z,10.57
2022-09-10T09:20:23.027Z,10.50
2022-09-10T09:22:55.654Z,11.10
2022-09-10T09:25:33.592Z,12.10
2022-09-10T09:28:00.493Z,15.83
2022-09-10T09:30:37.087Z,12.00
2022-09-10T09:33:13.372Z,12.37
2022-09-10T09:35:52.965Z,10.70
2022-09-10T09:38:23.918Z,14.07
2022-09-10T09:40:56.285Z,11.80
2022-09-10T09:43:50.634Z,12.17
2022-09-10T09:46:19.996Z,12.63
2022-09-10T09:48:47.987Z,14.17
2022-09-10T09:51:21.095Z,14.60
2022-09-10T09:54:12.177Z,14.60
2022-09-10T09:56:49.776Z,11.13
2022-09-10T09:59:24.854Z,11.30
2022-09-10T10:01:51.748Z,12.03
2022-09-10T10:04:27.018Z,12.80
2022-09-10T10:06:56.593Z,13.97
2022-09-10T10:09:33.345Z,21.60
2022-09-10T10:12:05.849Z,11.67
2022-09-10T10:14:32.393Z,14.93
2022-09-10T10:17:01.149Z,20.40
2022-09-10T10:19:39.523Z,23.83
2022-09-10T10:22:18.023Z,16.47
2022-09-10T10:24:46.670Z,12.67
2022-09-10T10:27:23.891Z,13.63
2022-09-10T10:29:58.997Z,13.87
2022-09-10T10:32:34.496Z,15.60
2022-09-10T10:35:16.362Z,15.97
2022-09-10T10:37:56.612Z,13.30
2022-09-10T10:40:36.895Z,15.30
2022-09-10T10:43:30.714Z,14.83
2022-09-10T10:46:06.618Z,12.23
2022-09-10T10:48:52.592Z,13.70
2022-09-10T10:51:53.622Z,11.80
2022-09-10T10:54:44.453Z,12.20
2022-09-10T10:57:17.135Z,12.87
2022-09-10T10:59:54.598Z,12.13
2022-09-10T11:02:45.255Z,11.63
2022-09-10T11:05:51.433Z,13.37
2022-09-10T11:08:28.480Z,12.23
2022-09-10T11:11:13.094Z,13.27
2022-09-10T11:13:55.308Z,13.73
2022-09-10T11:16:40.427Z,11.93
2022-09-10T11:19:22.476Z,15.60
2022-09-10T11:21:54.226Z,11.70
2022-09-10T11:24:29.210Z,13.57
2022-09-10T11:27:19.203Z,12.30
2022-09-10T11:30:03.848Z,14.97
2022-09-10T11:33:04.258Z,12.70
2022-09-10T11:35:37.317Z,13.43
2022-09-10T11:38:47.755Z,12.70
2022-09-10T11:41:22.780Z,12.50
2022-09-10T11:44:24.912Z,12.30
2022-09-10T11:47:04.072Z,11.90
2022-09-10T11:50:21.533Z,13.50
2022-09-10T11:52:48.691Z,14.87
2022-09-10T11:55:17.452Z,14.70
2022-09-10T11:58:05.724Z,11.90
2022-09-10T12:00:38.946Z,11.97
2022-09-10T12:03:21.505Z,12.33
2022-09-10T12:06:02.627Z,13.20
2022-09-10T12:08:44.238Z,14.50
2022-09-10T12:11:16.645Z,12.10
2022-09-10T12:13:45.812Z,12.07
2022-09-10T12:16:42.842Z,12.13
2022-09-10T12:19:33.747Z,12.60
2022-09-10T12:22:06.359Z,12.40
2022-09-10T12:24:38.779Z,11.87
2022-09-10T12:27:07.008Z,12.60
2022-09-10T12:29:40.646Z,12.77
2022-09-10T12:32:19.429Z,12.43
2022-09-10T12:34:49.694Z,11.87
2022-09-10T12:37:22.850Z,12.70
2022-09-10T12:40:25.112Z,12.63
2022-09-10T12:42:52.354Z,13.53
2022-09-10T12:46:01.015Z,13.33
2022-09-10T12:48:29.776Z,16.67
2022-09-10T12:51:00.439Z,11.93
2022-09-10T12:53:48.177Z,14.90
2022-09-10T12:56:33.894Z,11.60
2022-09-10T12:59:26.375Z,13.10
2022-09-10T13:01:54.157Z,12.33
2022-09-10T13:04:29.848Z,13.83
2022-09-10T13:07:01.392Z,15.40
2022-09-10T13:09:32.548Z,12.00
2022-09-10T13:12:06.588Z,13.37
2022-09-10T13:14:40.907Z,16.33
2022-09-10T13:17:38.049Z,14.80
2022-09-10T13:20:21.719Z,13.23
2022-09-10T13:23:10.162Z,14.73
2022-09-10T13:25:45.099Z,14.63
2022-09-10T13:28:30.011Z,16.97
2022-09-10T13:31:11.941Z,13.67
2022-09-10T13:33:51.812Z,12.00
2022-09-10T13:36:37.432Z,14.47
2022-09-10T13:39:37.878Z,14.50
2022-09-10T13:42:24.844Z,14.57
2022-09-10T13:44:57.583Z,12.80
2022-09-10T13:47:57.255Z,12.53
2022-09-10T13:50:34.739Z,14.10
2022-09-10T13:53:05.906Z,14.07
2022-09-10T13:55:34.025Z,13.67
2022-09-10T13:58:09.301Z,12.27
2022-09-10T14:00:49.952Z,12.00
2022-09-10T14:03:22.850Z,15.67
2022-09-10T14:06:03.291Z,13.43
2022-09-10T14:08:33.095Z,17.10
2022-09-10T14:11:07.250Z,15.40
2022-09-10T14:13:42.401Z,15.90
2022-09-10T14:16:13.559Z,13.13
2022-09-10T14:18:51.448Z,12.37
2022-09-10T14:21:26.723Z,13.33
2022-09-10T14:23:58.889Z,14.70
2022-09-10T14:26:28.043Z,14.80
2022-09-10T14:29:03.400Z,14.73
2022-09-10T14:31:36.724Z,14.67
2022-09-10T14:34:33.454Z,14.80
2022-09-10T14:37:01.245Z,14.03
2022-09-10T14:39:28.556Z,15.50
2022-09-10T14:42:10.417Z,15.50
2022-09-10T14:44:42.285Z,13.23
2022-09-10T14:47:08.937Z,16.77
2022-09-10T14:49:38.881Z,17.63
2022-09-10T14:52:07.771Z,17.10
2022-09-10T14:54:35.049Z,16.70
2022-09-10T14:57:04.680Z,18.20
2022-09-10T14:59:31.675Z,17.40
2022-09-10T15:02:00.826Z,16.70
2022-09-10T15:04:29.929Z,14.93
2022-09-10T15:07:00.511Z,14.43
2022-09-10T15:09:28.552Z,14.37
2022-09-10T15:12:29.494Z,17.93
2022-09-10T15:14:57.570Z,13.90
2022-09-10T15:17:24.427Z,15.70
2022-09-10T15:19:52.097Z,15.20
2022-09-10T15:22:30.406Z,16.90
2022-09-10T15:25:13.292Z,17.90
2022-09-10T15:27:39.882Z,16.30
2022-09-10T15:30:07.235Z,16.87
2022-09-10T15:32:35.862Z,20.63
2022-09-10T15:35:04.214Z,13.67
2022-09-10T15:37:30.785Z,16.70
2022-09-10T15:39:58.358Z,13.90
2022-09-10T15:42:25.108Z,16.50
2022-09-10T15:44:51.701Z,15.07
2022-09-10T15:47:18.338Z,15.30
2022-09-10T15:49:44.915Z,17.50
2022-09-10T15:52:11.501Z,14.20
2022-09-10T15:54:38.635Z,18.60
2022-09-10T15:57:06.701Z,15.40
2022-09-10T15:59:33.279Z,15.10
2022-09-10T16:01:59.982Z,17.43
2022-09-10T16:04:30.678Z,14.90
2022-09-10T16:07:00.416Z,19.03
2022-09-10T16:09:27.034Z,16.03
2022-09-10T16:11:53.746Z,14.80
2022-09-10T16:14:21.524Z,16.13
2022-09-10T16:16:50.897Z,15.13
2022-09-10T16:19:17.646Z,16.03
2022-09-10T16:21:45.690Z,14.63
2022-09-10T16:24:12.464Z,14.13
2022-09-10T16:26:41.146Z,15.67
2022-09-10T16:29:14.249Z,14.83
2022-09-10T16:31:41.504Z,14.40
2022-09-10T16:34:11.838Z,15.17
2022-09-10T16:36:39.431Z,18.03
2022-09-10T16:39:12.167Z,18.30
2022-09-10T16:41:44.177Z,14.30
2022-09-10T16:44:12.013Z,14.53
2022-09-10T16:46:40.163Z,20.90
2022-09-10T16:49:12.413Z,14.33
2022-09-10T16:51:39.490Z,15.77
2022-09-10T16:54:07.193Z,15.87
2022-09-10T16:56:45.186Z,17.30
2022-09-10T16:59:17.644Z,17.60
2022-09-10T17:01:48.219Z,14.80
2022-09-10T17:04:24.651Z,16.07
2022-09-10T17:06:52.918Z,16.30
2022-09-10T17:09:19.592Z,17.27
2022-09-10T17:11:46.351Z,14.47
2022-09-10T17:14:12.919Z,18.40
2022-09-10T17:16:41.440Z,15.00
2022-09-10T17:19:11.516Z,18.00
2022-09-10T17:21:40.675Z,16.90
2022-09-10T17:24:10.727Z,15.23
2022-09-10T17:26:39.472Z,16.97
2022-09-10T17:29:12.550Z,16.40
2022-09-10T17:31:39.593Z,13.37
2022-09-10T17:34:07.165Z,14.40
2022-09-10T17:36:34.197Z,13.60
2022-09-10T17:39:01.099Z,13.83
2022-09-10T17:41:29.091Z,15.47
2022-09-10T17:43:57.630Z,16.20
2022-09-10T17:46:24.506Z,15.63
2022-09-10T17:48:52.124Z,17.60
2022-09-10T17:51:21.593Z,19.57
2022-09-10T17:53:48.944Z,15.60
2022-09-10T17:56:18.928Z,17.70
2022-09-10T17:58:47.181Z,17.20
2022-09-10T18:01:23.787Z,15.40
2022-09-10T18:03:51.471Z,14.87
2022-09-10T18:06:18.485Z,15.57
2022-09-10T18:08:45.285Z,14.37
2022-09-10T18:11:16.303Z,15.30
2022-09-10T18:13:44.438Z,16.73
2022-09-10T18:16:14.723Z,14.47
2022-09-10T18:18:41.466Z,16.30
2022-09-10T18:21:17.483Z,18.30
2022-09-10T18:23:44.115Z,16.90
2022-09-10T18:26:15.958Z,14.80
2022-09-10T18:28:44.057Z,16.27
2022-09-10T18:31:11.334Z,20.70
2022-09-10T18:33:40.029Z,19.83
2022-09-10T18:36:12.483Z,20.37
2022-09-10T18:38:40.212Z,17.63
2022-09-10T18:41:18.104Z,21.10
2022-09-10T18:43:46.419Z,15.97
2022-09-10T18:46:14.837Z,20.00
2022-09-10T18:48:42.441Z,23.87
2022-09-10T18:51:11.809Z,20.60
2022-09-10T18:53:39.726Z,20.50
2022-09-10T18:56:11.576Z,25.30
2022-09-10T18:58:38.799Z,19.53
2022-09-10T19:01:11.459Z,22.47
2022-09-10T19:03:42.461Z,20.03
2022-09-10T19:06:11.808Z,18.80
2022-09-10T19:08:45.650Z,19.10
2022-09-10T19:11:17.252Z,22.10
2022-09-10T19:13:48.755Z,22.13
2022-09-10T19:16:16.041Z,26.13
2022-09-10T19:18:43.594Z,25.03
2022-09-10T19:21:10.483Z,25.07
2022-09-10T19:23:37.446Z,27.70
2022-09-10T19:26:04.257Z,27.73
2022-09-10T19:28:33.672Z,29.53
2022-09-10T19:31:03.311Z,33.70
2022-09-10T19:33:30.879Z,33.90
2022-09-10T19:36:02.930Z,36.80
2022-09-10T19:38:37.417Z,38.00
2022-09-10T19:41:20.816Z,35.90
2022-09-10T19:43:50.205Z,56.93
2022-09-10T19:46:18.833Z,42.90
2022-09-10T19:48:51.702Z,40.70
2022-09-10T19:51:20.172Z,42.60
2022-09-10T19:53:48.786Z,44.13
2022-09-10T19:56:21.450Z,46.47
2022-09-10T19:58:53.343Z,48.90
2022-09-10T20:01:23.473Z,51.03
2022-09-10T20:03:51.949Z,53.43
2022-09-10T20:06:21.454Z,47.03
2022-09-10T20:08:51.099Z,53.03
2022-09-10T20:11:20.906Z,53.07
2022-09-10T20:13:48.344Z,54.73
2022-09-10T20:16:16.471Z,54.37
2022-09-10T20:18:43.420Z,50.20
2022-09-10T20:21:20.438Z,50.47
2022-09-10T20:23:50.814Z,51.27
2022-09-10T20:26:23.979Z,50.93
2022-09-10T20:28:59.456Z,51.13
2022-09-10T20:31:27.781Z,32.97
2022-09-10T20:33:56.476Z,32.43
2022-09-10T20:36:24.392Z,30.80
2022-09-10T20:38:52.205Z,33.00
2022-09-10T20:41:19.212Z,35.97
2022-09-10T20:43:52.923Z,40.90
2022-09-10T20:46:22.137Z,39.20
2022-09-10T20:48:50.726Z,45.63
2022-09-10T20:51:18.790Z,47.23
2022-09-10T20:53:45.659Z,47.27
2022-09-10T20:56:14.866Z,44.40
2022-09-10T20:58:41.957Z,45.90
2022-09-10T21:01:14.473Z,43.30
2022-09-10T21:03:41.403Z,45.30
2022-09-10T21:06:10.056Z,46.80
2022-09-10T21:08:38.035Z,49.90
2022-09-10T21:11:12.863Z,45.93
2022-09-10T21:13:45.472Z,42.83
2022-09-10T21:16:16.133Z,46.37
2022-09-10T21:18:50.833Z,46.67
2022-09-10T21:21:22.633Z,54.83
2022-09-10T21:23:54.882Z,49.67
2022-09-10T21:26:25.115Z,44.80
2022-09-10T21:28:57.911Z,49.50
2022-09-10T21:31:27.092Z,49.57
2022-09-10T21:34:00.662Z,51.40
2022-09-10T21:36:30.009Z,44.77
2022-09-10T21:38:59.464Z,49.53
2022-09-10T21:41:31.626Z,50.00
2022-09-10T21:43:59.832Z,49.63
2022-09-10T21:46:27.349Z,51.30
2022-09-10T21:48:53.995Z,50.20
2022-09-10T21:51:22.011Z,47.40
2022-09-10T21:53:52.568Z,48.23
2022-09-10T21:56:19.159Z,46.47
2022-09-10T21:58:46.740Z,48.93
2022-09-10T22:01:17.150Z,49.97
2022-09-10T22:03:48.715Z,52.47
2022-09-10T22:06:27.394Z,57.80
2022-09-10T22:09:00.266Z,53.43
2022-09-10T22:11:36.109Z,50.07
2022-09-10T22:14:22.898Z,53.70
2022-09-10T22:16:50.171Z,52.27
2022-09-10T22:19:22.838Z,55.30
2022-09-10T22:21:50.175Z,55.17
2022-09-10T22:24:19.513Z,51.13
2022-09-10T22:26:47.244Z,50.23
2022-09-10T22:29:18.561Z,54.37
2022-09-10T22:31:57.681Z,51.53
2022-09-10T22:34:36.447Z,64.17
2022-09-10T22:37:03.417Z,59.60
2022-09-10T22:39:36.843Z,63.23
2022-09-10T22:42:04.595Z,63.50
2022-09-10T22:44:31.510Z,67.50
2022-09-10T22:46:58.277Z,65.17
2022-09-10T22:49:24.877Z,65.13
2022-09-10T22:52:04.855Z,64.23
2022-09-10T22:54:31.632Z,63.83
2022-09-10T22:57:06.157Z,60.43
2022-09-10T22:59:37.379Z,64.43
2022-09-10T23:02:10.477Z,68.90
2022-09-10T23:04:38.272Z,69.33
2022-09-10T23:07:06.440Z,62.00
2022-09-10T23:09:33.038Z,73.10
2022-09-10T23:12:01.339Z,63.43
2022-09-10T23:14:29.117Z,67.93
2022-09-10T23:16:57.541Z,69.57
2022-09-10T23:19:25.163Z,62.27
2022-09-10T23:21:54.045Z,67.80
2022-09-10T23:24:24.330Z,65.47
2022-09-10T23:26:51.126Z,71.63
2022-09-10T23:29:17.982Z,64.37
2022-09-10T23:31:45.996Z,68.47
2022-09-10T23:34:19.821Z,67.33
2022-09-10T23:36:48.274Z,77.87
2022-09-10T23:39:20.265Z,72.40
2022-09-10T23:41:51.325Z,74.90
2022-09-10T23:44:18.475Z,76.10
2022-09-10T23:46:45.234Z,71.63
2022-09-10T23:49:12.604Z,80.50
2022-09-10T23:51:39.577Z,77.90
2022-09-10T23:54:06.347Z,81.43
2022-09-10T23:56:32.946Z,82.87
2022-09-10T23:59:00.010Z,76.53
